Terminal Aerodrome Forecast
Issued by NWS

Home | Current Version | Previous Version | Text Only | Print | Product List | Glossary On
Versions: 1 2 3 4 5 6 7 8 9 10 11 12 13 14 15 16 17 18 19 20 21 22 23 24 25 26 27
000
FTAK31 PAFA 252339
TAFAFA
TAF
PAFA 252339Z 2600/2706 23005KT P6SM -RA BKN015 OVC040
     FM260100 23005KT P6SM -SHRA VCTS SCT015 BKN040CB OVC100
     FM260400 VRB03KT P6SM VCSH SCT015 BKN040
     FM260900 25003KT 2SM BR BKN010
     FM262000 23004KT P6SM SCT010 BKN040=

USA.gov is the U.S. government's official web portal to all federal, state and local government web resources and services.